Airfield :
LOGIN :

Register | Disclaimer

   EN    FR    IT 

 










Legend :    VFR   Marginal VFR   IFR   Intensive IFR   Very Intensive IFR
Visi :
Ceiling :
>= 8 km
>= 3000ft
5 to 8 km
1000 to 3000 ft
1500m to 5 km
500 to 1000 ft
800 to 1500m
200 to 500 ft
< 800m
< 200 ft
Symbols :   Thunderstorms  Fog  Heavy snow  Heavy precipitations  Wind > 20 kt
SIGMETs :     Misc.  Thunderstorms  Icing  Turbulence  Mountain Waves  Volcanic Ashes







- Airport Elevation : 909 ft
- IATA code : KSF


EDVK - Kassel Calden

CURRENT METAR :
  • 190920Z 05009KT 9999 SCT022 BKN043 03/M00 Q1019

EXPIRED METARs :
  • 190850Z 05009KT 9999 SCT021 BKN027 03/M00 Q1019
  • 190820Z 04010KT 360V070 9999 SCT022 BKN059 03/00 Q1019
  • 190750Z 04009KT 360V060 9999 SCT022 BKN036 03/M00 Q1019
  • 190720Z 04011KT 9999 -RA FEW022 BKN049 03/M00 Q1019
  • 190650Z 03008KT 9999 -RA BKN020 OVC047 03/00 Q1019

TAF TAF EDVK
Valid from the 19 at 09:00 until the 19 at 18:00 UTC


190800Z 1909/1918 05010KT 9999 BKN025
PROB30
TEMPO 1909/1918 06015G25KT 4500 -SNRA BKN008
No reported NOTAMs for that airfield.
1 SIGMET reported for the Bremen FIR (EDWW) :
 
Severe icing
EDWW SIGMET 1 VALID 190845/191045 EDZH
EDWW BREMEN FIR SEV ICE OBS S OF N5230 AND E OF E00840 2000FT/FL060 STNR WKN=



MET'MAP, your aeronautical weather chart ! - Copyright ORBIFLY December 2007 - Disclaimer

ORBIFLY MET'MAP TEAM :

Programming & Development : Alexandra Zaïnal
Concept & Development : Baudouin d'Aumeries
Co-Development & Prog : Marc-Olivier Méhu
Technical & hardware support : Manuel Goepfert

Contact : metmap@orbifly.com




SOURCES & CREDITS :

   NOAA